sensor_id;sensor_type;location;lat;lon;timestamp;P1;durP1;ratioP1;P2;durP2;ratioP2
84796;SDS011;75028;51.374;21.078;2024-03-02T00:00:22;31.58;;;15.18;;
84796;SDS011;75028;51.374;21.078;2024-03-02T00:03:11;35.95;;;15.88;;
84796;SDS011;75028;51.374;21.078;2024-03-02T00:05:39;28.08;;;15.32;;
84796;SDS011;75028;51.374;21.078;2024-03-02T00:08:06;31.23;;;15.55;;
84796;SDS011;75028;51.374;21.078;2024-03-02T00:13:08;29.98;;;15.15;;
84796;SDS011;75028;51.374;21.078;2024-03-02T00:18:18;28.85;;;15.02;;
84796;SDS011;75028;51.374;21.078;2024-03-02T00:20:45;26.70;;;14.60;;
84796;SDS011;75028;51.374;21.078;2024-03-02T00:25:40;26.92;;;13.18;;
84796;SDS011;75028;51.374;21.078;2024-03-02T00:28:14;25.13;;;13.35;;
84796;SDS011;75028;51.374;21.078;2024-03-02T00:33:10;28.80;;;14.15;;
84796;SDS011;75028;51.374;21.078;2024-03-02T00:35:36;31.70;;;14.50;;
84796;SDS011;75028;51.374;21.078;2024-03-02T00:38:05;32.28;;;14.63;;
84796;SDS011;75028;51.374;21.078;2024-03-02T00:40:32;24.60;;;15.10;;
84796;SDS011;75028;51.374;21.078;2024-03-02T00:45:25;29.90;;;14.68;;
84796;SDS011;75028;51.374;21.078;2024-03-02T00:47:51;25.85;;;14.32;;
84796;SDS011;75028;51.374;21.078;2024-03-02T00:50:18;27.15;;;14.52;;
84796;SDS011;75028;51.374;21.078;2024-03-02T00:52:45;30.48;;;14.60;;
84796;SDS011;75028;51.374;21.078;2024-03-02T00:55:14;26.15;;;15.15;;
84796;SDS011;75028;51.374;21.078;2024-03-02T00:57:40;27.48;;;14.57;;
84796;SDS011;75028;51.374;21.078;2024-03-02T01:00:06;30.90;;;14.80;;
84796;SDS011;75028;51.374;21.078;2024-03-02T01:02:36;27.50;;;15.10;;
84796;SDS011;75028;51.374;21.078;2024-03-02T01:05:02;32.63;;;16.15;;
84796;SDS011;75028;51.374;21.078;2024-03-02T01:07:28;31.42;;;16.50;;
84796;SDS011;75028;51.374;21.078;2024-03-02T01:09:54;29.25;;;15.82;;
84796;SDS011;75028;51.374;21.078;2024-03-02T01:12:20;33.30;;;15.35;;
84796;SDS011;75028;51.374;21.078;2024-03-02T01:14:46;30.20;;;16.48;;
84796;SDS011;75028;51.374;21.078;2024-03-02T01:17:12;29.63;;;15.48;;
84796;SDS011;75028;51.374;21.078;2024-03-02T01:19:39;26.88;;;15.82;;
84796;SDS011;75028;51.374;21.078;2024-03-02T01:22:07;32.72;;;16.58;;
84796;SDS011;75028;51.374;21.078;2024-03-02T01:24:33;25.90;;;14.35;;
84796;SDS011;75028;51.374;21.078;2024-03-02T01:26:59;30.15;;;15.10;;
84796;SDS011;75028;51.374;21.078;2024-03-02T01:29:25;29.20;;;15.95;;
84796;SDS011;75028;51.374;21.078;2024-03-02T01:31:52;30.77;;;16.25;;
84796;SDS011;75028;51.374;21.078;2024-03-02T01:34:19;32.63;;;16.15;;
84796;SDS011;75028;51.374;21.078;2024-03-02T01:36:45;33.15;;;16.85;;
84796;SDS011;75028;51.374;21.078;2024-03-02T01:39:11;32.03;;;16.08;;
84796;SDS011;75028;51.374;21.078;2024-03-02T01:41:37;32.47;;;15.60;;
84796;SDS011;75028;51.374;21.078;2024-03-02T01:44:03;29.20;;;16.20;;
84796;SDS011;75028;51.374;21.078;2024-03-02T01:46:30;32.72;;;17.65;;
84796;SDS011;75028;51.374;21.078;2024-03-02T01:48:56;26.23;;;14.55;;
84796;SDS011;75028;51.374;21.078;2024-03-02T01:51:22;31.60;;;15.55;;
84796;SDS011;75028;51.374;21.078;2024-03-02T01:53:48;30.40;;;15.80;;
84796;SDS011;75028;51.374;21.078;2024-03-02T01:56:14;29.83;;;15.85;;
84796;SDS011;75028;51.374;21.078;2024-03-02T01:58:40;26.95;;;14.27;;
84796;SDS011;75028;51.374;21.078;2024-03-02T02:01:06;32.88;;;14.98;;
84796;SDS011;75028;51.374;21.078;2024-03-02T02:03:32;29.40;;;15.50;;
84796;SDS011;75028;51.374;21.078;2024-03-02T02:05:59;27.83;;;15.40;;
84796;SDS011;75028;51.374;21.078;2024-03-02T02:08:25;31.60;;;15.35;;
84796;SDS011;75028;51.374;21.078;2024-03-02T02:13:17;28.77;;;14.07;;
84796;SDS011;75028;51.374;21.078;2024-03-02T02:15:44;29.95;;;14.88;;
84796;SDS011;75028;51.374;21.078;2024-03-02T02:18:09;29.85;;;15.20;;
84796;SDS011;75028;51.374;21.078;2024-03-02T02:20:36;27.90;;;15.45;;
84796;SDS011;75028;51.374;21.078;2024-03-02T02:23:02;33.33;;;15.68;;
84796;SDS011;75028;51.374;21.078;2024-03-02T02:25:31;35.10;;;16.40;;
84796;SDS011;75028;51.374;21.078;2024-03-02T02:27:57;31.30;;;15.43;;
84796;SDS011;75028;51.374;21.078;2024-03-02T02:30:27;28.75;;;15.18;;
84796;SDS011;75028;51.374;21.078;2024-03-02T02:32:55;29.33;;;16.00;;
84796;SDS011;75028;51.374;21.078;2024-03-02T02:35:21;25.15;;;13.77;;
84796;SDS011;75028;51.374;21.078;2024-03-02T02:37:48;29.85;;;15.00;;
84796;SDS011;75028;51.374;21.078;2024-03-02T02:40:16;28.02;;;14.75;;
84796;SDS011;75028;51.374;21.078;2024-03-02T02:42:44;28.85;;;15.13;;
84796;SDS011;75028;51.374;21.078;2024-03-02T02:45:10;33.55;;;15.90;;
84796;SDS011;75028;51.374;21.078;2024-03-02T02:47:43;30.05;;;16.30;;
84796;SDS011;75028;51.374;21.078;2024-03-02T02:50:10;27.80;;;15.57;;
84796;SDS011;75028;51.374;21.078;2024-03-02T02:52:38;31.80;;;16.63;;
84796;SDS011;75028;51.374;21.078;2024-03-02T02:55:07;30.55;;;16.30;;
84796;SDS011;75028;51.374;21.078;2024-03-02T02:57:34;35.67;;;16.05;;
84796;SDS011;75028;51.374;21.078;2024-03-02T03:00:03;33.88;;;15.30;;
84796;SDS011;75028;51.374;21.078;2024-03-02T03:02:31;32.03;;;15.48;;
84796;SDS011;75028;51.374;21.078;2024-03-02T03:07:23;32.67;;;14.40;;
84796;SDS011;75028;51.374;21.078;2024-03-02T03:09:49;35.92;;;17.48;;
84796;SDS011;75028;51.374;21.078;2024-03-02T03:12:15;31.48;;;15.02;;
84796;SDS011;75028;51.374;21.078;2024-03-02T03:14:41;32.50;;;15.52;;
84796;SDS011;75028;51.374;21.078;2024-03-02T03:17:07;33.13;;;16.00;;
84796;SDS011;75028;51.374;21.078;2024-03-02T03:19:34;32.65;;;16.55;;
84796;SDS011;75028;51.374;21.078;2024-03-02T03:21:59;31.42;;;16.25;;
84796;SDS011;75028;51.374;21.078;2024-03-02T03:24:26;31.17;;;15.48;;
84796;SDS011;75028;51.374;21.078;2024-03-02T03:26:52;33.05;;;17.25;;
84796;SDS011;75028;51.374;21.078;2024-03-02T03:29:18;36.28;;;17.42;;
84796;SDS011;75028;51.374;21.078;2024-03-02T03:31:44;34.13;;;17.63;;
84796;SDS011;75028;51.374;21.078;2024-03-02T03:34:10;35.95;;;16.40;;
84796;SDS011;75028;51.374;21.078;2024-03-02T03:36:41;36.10;;;16.67;;
84796;SDS011;75028;51.374;21.078;2024-03-02T03:39:08;38.03;;;17.70;;
84796;SDS011;75028;51.374;21.078;2024-03-02T03:41:34;38.78;;;16.90;;
84796;SDS011;75028;51.374;21.078;2024-03-02T03:46:25;31.17;;;15.07;;
84796;SDS011;75028;51.374;21.078;2024-03-02T03:48:52;33.03;;;16.63;;
84796;SDS011;75028;51.374;21.078;2024-03-02T03:51:17;42.15;;;16.90;;
84796;SDS011;75028;51.374;21.078;2024-03-02T03:53:44;37.83;;;17.90;;
84796;SDS011;75028;51.374;21.078;2024-03-02T03:56:10;38.72;;;17.67;;
84796;SDS011;75028;51.374;21.078;2024-03-02T03:58:36;43.20;;;17.33;;
84796;SDS011;75028;51.374;21.078;2024-03-02T04:01:02;37.40;;;17.13;;
84796;SDS011;75028;51.374;21.078;2024-03-02T04:05:54;38.92;;;19.55;;
84796;SDS011;75028;51.374;21.078;2024-03-02T04:08:20;38.72;;;17.77;;
84796;SDS011;75028;51.374;21.078;2024-03-02T04:10:46;42.00;;;19.85;;
84796;SDS011;75028;51.374;21.078;2024-03-02T04:13:13;35.70;;;17.40;;
84796;SDS011;75028;51.374;21.078;2024-03-02T04:15:38;39.95;;;17.75;;
84796;SDS011;75028;51.374;21.078;2024-03-02T04:18:06;37.72;;;17.80;;
84796;SDS011;75028;51.374;21.078;2024-03-02T04:20:32;39.45;;;19.27;;
84796;SDS011;75028;51.374;21.078;2024-03-02T04:22:58;40.85;;;17.23;;
84796;SDS011;75028;51.374;21.078;2024-03-02T04:25:24;41.53;;;18.98;;
84796;SDS011;75028;51.374;21.078;2024-03-02T04:27:51;35.15;;;17.75;;
84796;SDS011;75028;51.374;21.078;2024-03-02T04:30:17;38.17;;;17.77;;
84796;SDS011;75028;51.374;21.078;2024-03-02T04:35:12;36.97;;;18.20;;
84796;SDS011;75028;51.374;21.078;2024-03-02T04:40:05;34.72;;;17.80;;
84796;SDS011;75028;51.374;21.078;2024-03-02T04:42:34;38.75;;;18.17;;
84796;SDS011;75028;51.374;21.078;2024-03-02T04:45:01;33.00;;;17.88;;
84796;SDS011;75028;51.374;21.078;2024-03-02T04:47:27;38.45;;;17.50;;
84796;SDS011;75028;51.374;21.078;2024-03-02T04:52:19;36.95;;;16.52;;
84796;SDS011;75028;51.374;21.078;2024-03-02T04:54:45;39.05;;;18.50;;
84796;SDS011;75028;51.374;21.078;2024-03-02T04:57:30;36.42;;;17.08;;
84796;SDS011;75028;51.374;21.078;2024-03-02T04:59:56;43.47;;;18.20;;
84796;SDS011;75028;51.374;21.078;2024-03-02T05:02:22;42.08;;;18.52;;
84796;SDS011;75028;51.374;21.078;2024-03-02T05:04:48;44.13;;;17.98;;
84796;SDS011;75028;51.374;21.078;2024-03-02T05:07:14;42.28;;;18.40;;
84796;SDS011;75028;51.374;21.078;2024-03-02T05:09:40;38.38;;;17.92;;
84796;SDS011;75028;51.374;21.078;2024-03-02T05:12:07;48.55;;;19.45;;
84796;SDS011;75028;51.374;21.078;2024-03-02T05:14:43;39.10;;;16.58;;
84796;SDS011;75028;51.374;21.078;2024-03-02T05:17:08;43.17;;;18.33;;
84796;SDS011;75028;51.374;21.078;2024-03-02T05:19:35;40.25;;;17.38;;
84796;SDS011;75028;51.374;21.078;2024-03-02T05:22:01;40.15;;;17.45;;
84796;SDS011;75028;51.374;21.078;2024-03-02T05:24:27;36.08;;;17.08;;
84796;SDS011;75028;51.374;21.078;2024-03-02T05:26:53;34.90;;;16.25;;
84796;SDS011;75028;51.374;21.078;2024-03-02T05:29:20;42.55;;;17.75;;
84796;SDS011;75028;51.374;21.078;2024-03-02T05:34:12;38.67;;;17.63;;
84796;SDS011;75028;51.374;21.078;2024-03-02T05:36:38;43.05;;;17.85;;
84796;SDS011;75028;51.374;21.078;2024-03-02T05:41:35;38.75;;;17.48;;
84796;SDS011;75028;51.374;21.078;2024-03-02T05:44:01;40.10;;;17.30;;
84796;SDS011;75028;51.374;21.078;2024-03-02T05:46:27;37.75;;;17.75;;
84796;SDS011;75028;51.374;21.078;2024-03-02T05:48:54;39.05;;;17.35;;
84796;SDS011;75028;51.374;21.078;2024-03-02T05:51:20;39.38;;;17.65;;
84796;SDS011;75028;51.374;21.078;2024-03-02T05:53:46;38.90;;;17.02;;
84796;SDS011;75028;51.374;21.078;2024-03-02T05:56:12;41.35;;;17.80;;
84796;SDS011;75028;51.374;21.078;2024-03-02T05:58:38;44.08;;;17.42;;
84796;SDS011;75028;51.374;21.078;2024-03-02T06:01:22;36.92;;;17.77;;
84796;SDS011;75028;51.374;21.078;2024-03-02T06:03:55;39.42;;;17.58;;
84796;SDS011;75028;51.374;21.078;2024-03-02T06:06:22;39.10;;;16.85;;
84796;SDS011;75028;51.374;21.078;2024-03-02T06:08:49;43.92;;;18.88;;
84796;SDS011;75028;51.374;21.078;2024-03-02T06:11:15;43.28;;;16.98;;
84796;SDS011;75028;51.374;21.078;2024-03-02T06:13:41;40.33;;;17.42;;
84796;SDS011;75028;51.374;21.078;2024-03-02T06:16:07;39.97;;;18.27;;
84796;SDS011;75028;51.374;21.078;2024-03-02T06:18:34;49.20;;;18.77;;
84796;SDS011;75028;51.374;21.078;2024-03-02T06:21:00;35.88;;;17.17;;
84796;SDS011;75028;51.374;21.078;2024-03-02T06:23:29;40.35;;;16.48;;
84796;SDS011;75028;51.374;21.078;2024-03-02T06:25:55;38.33;;;16.23;;
84796;SDS011;75028;51.374;21.078;2024-03-02T06:28:21;39.08;;;16.35;;
84796;SDS011;75028;51.374;21.078;2024-03-02T06:30:47;40.15;;;17.77;;
84796;SDS011;75028;51.374;21.078;2024-03-02T06:33:13;41.17;;;17.45;;
84796;SDS011;75028;51.374;21.078;2024-03-02T06:35:39;41.72;;;17.52;;
84796;SDS011;75028;51.374;21.078;2024-03-02T06:38:06;40.38;;;17.17;;
84796;SDS011;75028;51.374;21.078;2024-03-02T06:40:34;41.53;;;17.60;;
84796;SDS011;75028;51.374;21.078;2024-03-02T06:43:00;41.10;;;18.00;;
84796;SDS011;75028;51.374;21.078;2024-03-02T06:45:26;35.60;;;17.00;;
84796;SDS011;75028;51.374;21.078;2024-03-02T06:50:18;38.70;;;16.35;;
84796;SDS011;75028;51.374;21.078;2024-03-02T06:52:44;37.47;;;16.27;;
84796;SDS011;75028;51.374;21.078;2024-03-02T06:55:10;40.17;;;17.35;;
84796;SDS011;75028;51.374;21.078;2024-03-02T06:57:37;36.03;;;17.15;;
84796;SDS011;75028;51.374;21.078;2024-03-02T07:00:02;37.78;;;16.85;;
84796;SDS011;75028;51.374;21.078;2024-03-02T07:02:31;41.35;;;17.75;;
84796;SDS011;75028;51.374;21.078;2024-03-02T07:04:57;38.50;;;17.83;;
84796;SDS011;75028;51.374;21.078;2024-03-02T07:09:49;38.53;;;16.50;;
84796;SDS011;75028;51.374;21.078;2024-03-02T07:12:15;37.67;;;16.88;;
84796;SDS011;75028;51.374;21.078;2024-03-02T07:14:41;43.42;;;18.02;;
84796;SDS011;75028;51.374;21.078;2024-03-02T07:17:36;42.60;;;18.35;;
84796;SDS011;75028;51.374;21.078;2024-03-02T07:20:02;36.28;;;17.08;;
84796;SDS011;75028;51.374;21.078;2024-03-02T07:22:29;37.22;;;16.55;;
84796;SDS011;75028;51.374;21.078;2024-03-02T07:24:55;41.78;;;17.70;;
84796;SDS011;75028;51.374;21.078;2024-03-02T07:27:21;40.88;;;18.10;;
84796;SDS011;75028;51.374;21.078;2024-03-02T07:29:47;40.17;;;17.05;;
84796;SDS011;75028;51.374;21.078;2024-03-02T07:32:14;40.13;;;17.92;;
84796;SDS011;75028;51.374;21.078;2024-03-02T07:34:40;39.25;;;17.77;;
84796;SDS011;75028;51.374;21.078;2024-03-02T07:37:06;35.63;;;17.10;;
84796;SDS011;75028;51.374;21.078;2024-03-02T07:39:32;42.00;;;18.50;;
84796;SDS011;75028;51.374;21.078;2024-03-02T07:44:25;38.88;;;17.92;;
84796;SDS011;75028;51.374;21.078;2024-03-02T07:49:20;37.80;;;17.65;;
84796;SDS011;75028;51.374;21.078;2024-03-02T07:51:46;43.03;;;19.48;;
84796;SDS011;75028;51.374;21.078;2024-03-02T07:54:12;42.90;;;18.38;;
84796;SDS011;75028;51.374;21.078;2024-03-02T07:59:04;42.78;;;19.85;;
84796;SDS011;75028;51.374;21.078;2024-03-02T08:01:31;42.97;;;19.30;;
84796;SDS011;75028;51.374;21.078;2024-03-02T08:04:01;47.65;;;19.67;;
84796;SDS011;75028;51.374;21.078;2024-03-02T08:06:29;42.38;;;18.33;;
84796;SDS011;75028;51.374;21.078;2024-03-02T08:08:56;46.28;;;20.05;;
84796;SDS011;75028;51.374;21.078;2024-03-02T08:11:23;44.05;;;19.50;;
84796;SDS011;75028;51.374;21.078;2024-03-02T08:16:17;50.72;;;20.35;;
84796;SDS011;75028;51.374;21.078;2024-03-02T08:18:49;47.80;;;20.13;;
84796;SDS011;75028;51.374;21.078;2024-03-02T08:21:16;41.20;;;19.60;;
84796;SDS011;75028;51.374;21.078;2024-03-02T08:23:43;44.63;;;20.23;;
84796;SDS011;75028;51.374;21.078;2024-03-02T08:26:09;49.92;;;21.20;;
84796;SDS011;75028;51.374;21.078;2024-03-02T08:28:36;48.70;;;19.60;;
84796;SDS011;75028;51.374;21.078;2024-03-02T08:31:03;45.05;;;19.77;;
84796;SDS011;75028;51.374;21.078;2024-03-02T08:33:29;52.30;;;21.80;;
84796;SDS011;75028;51.374;21.078;2024-03-02T08:35:55;48.55;;;20.52;;
84796;SDS011;75028;51.374;21.078;2024-03-02T08:38:22;48.28;;;20.15;;
84796;SDS011;75028;51.374;21.078;2024-03-02T08:40:49;50.15;;;21.42;;
84796;SDS011;75028;51.374;21.078;2024-03-02T08:43:15;52.13;;;20.67;;
84796;SDS011;75028;51.374;21.078;2024-03-02T08:45:42;44.33;;;19.70;;
84796;SDS011;75028;51.374;21.078;2024-03-02T08:48:08;51.30;;;22.58;;
84796;SDS011;75028;51.374;21.078;2024-03-02T08:50:35;51.70;;;23.85;;
84796;SDS011;75028;51.374;21.078;2024-03-02T08:53:04;46.15;;;20.17;;
84796;SDS011;75028;51.374;21.078;2024-03-02T08:55:31;52.00;;;19.85;;
84796;SDS011;75028;51.374;21.078;2024-03-02T08:57:57;48.75;;;20.10;;
84796;SDS011;75028;51.374;21.078;2024-03-02T09:00:23;44.67;;;20.42;;
84796;SDS011;75028;51.374;21.078;2024-03-02T09:02:50;48.63;;;21.15;;
84796;SDS011;75028;51.374;21.078;2024-03-02T09:05:16;48.55;;;20.92;;
84796;SDS011;75028;51.374;21.078;2024-03-02T09:07:42;51.75;;;20.60;;
84796;SDS011;75028;51.374;21.078;2024-03-02T09:12:35;45.78;;;20.27;;
84796;SDS011;75028;51.374;21.078;2024-03-02T09:15:01;44.95;;;20.77;;
84796;SDS011;75028;51.374;21.078;2024-03-02T09:17:31;49.00;;;21.10;;
84796;SDS011;75028;51.374;21.078;2024-03-02T09:22:23;48.80;;;20.08;;
84796;SDS011;75028;51.374;21.078;2024-03-02T09:24:50;45.78;;;19.95;;
84796;SDS011;75028;51.374;21.078;2024-03-02T09:27:16;51.30;;;22.38;;
84796;SDS011;75028;51.374;21.078;2024-03-02T09:32:08;50.80;;;20.27;;
84796;SDS011;75028;51.374;21.078;2024-03-02T09:34:37;46.90;;;19.75;;
84796;SDS011;75028;51.374;21.078;2024-03-02T09:37:03;42.55;;;21.65;;
84796;SDS011;75028;51.374;21.078;2024-03-02T09:39:30;50.45;;;21.45;;
84796;SDS011;75028;51.374;21.078;2024-03-02T09:41:56;50.75;;;20.85;;
84796;SDS011;75028;51.374;21.078;2024-03-02T09:44:25;52.53;;;21.15;;
84796;SDS011;75028;51.374;21.078;2024-03-02T09:46:51;48.13;;;21.83;;
84796;SDS011;75028;51.374;21.078;2024-03-02T09:49:18;51.95;;;21.65;;
84796;SDS011;75028;51.374;21.078;2024-03-02T09:51:47;47.78;;;20.02;;
84796;SDS011;75028;51.374;21.078;2024-03-02T09:54:17;47.33;;;21.75;;
84796;SDS011;75028;51.374;21.078;2024-03-02T09:56:44;53.97;;;22.33;;
84796;SDS011;75028;51.374;21.078;2024-03-02T09:59:10;47.75;;;21.17;;
84796;SDS011;75028;51.374;21.078;2024-03-02T10:01:37;50.45;;;20.55;;
84796;SDS011;75028;51.374;21.078;2024-03-02T10:04:03;49.55;;;21.85;;
84796;SDS011;75028;51.374;21.078;2024-03-02T10:06:31;52.22;;;21.00;;
84796;SDS011;75028;51.374;21.078;2024-03-02T10:08:57;47.20;;;20.80;;
84796;SDS011;75028;51.374;21.078;2024-03-02T10:11:34;55.42;;;22.00;;
84796;SDS011;75028;51.374;21.078;2024-03-02T10:14:06;48.95;;;22.85;;
84796;SDS011;75028;51.374;21.078;2024-03-02T10:16:34;52.15;;;23.00;;
84796;SDS011;75028;51.374;21.078;2024-03-02T10:19:35;52.80;;;21.60;;
84796;SDS011;75028;51.374;21.078;2024-03-02T10:21:58;48.60;;;22.20;;
84796;SDS011;75028;51.374;21.078;2024-03-02T10:24:25;53.75;;;22.92;;
84796;SDS011;75028;51.374;21.078;2024-03-02T10:26:51;53.97;;;23.15;;
84796;SDS011;75028;51.374;21.078;2024-03-02T10:29:18;53.47;;;23.50;;
84796;SDS011;75028;51.374;21.078;2024-03-02T10:34:14;46.47;;;21.27;;
84796;SDS011;75028;51.374;21.078;2024-03-02T10:36:42;57.47;;;24.27;;
84796;SDS011;75028;51.374;21.078;2024-03-02T10:39:09;53.88;;;23.17;;
84796;SDS011;75028;51.374;21.078;2024-03-02T10:41:37;55.55;;;23.80;;
84796;SDS011;75028;51.374;21.078;2024-03-02T10:44:04;56.78;;;24.48;;
84796;SDS011;75028;51.374;21.078;2024-03-02T10:46:33;51.33;;;22.52;;
84796;SDS011;75028;51.374;21.078;2024-03-02T10:49:00;65.65;;;24.75;;
84796;SDS011;75028;51.374;21.078;2024-03-02T10:51:28;57.22;;;24.27;;
84796;SDS011;75028;51.374;21.078;2024-03-02T10:53:58;52.80;;;23.15;;
84796;SDS011;75028;51.374;21.078;2024-03-02T10:56:30;51.03;;;23.45;;
84796;SDS011;75028;51.374;21.078;2024-03-02T10:59:02;52.50;;;23.17;;
84796;SDS011;75028;51.374;21.078;2024-03-02T11:01:30;51.72;;;22.55;;
84796;SDS011;75028;51.374;21.078;2024-03-02T11:03:58;53.22;;;23.10;;
84796;SDS011;75028;51.374;21.078;2024-03-02T11:06:27;51.40;;;23.23;;
84796;SDS011;75028;51.374;21.078;2024-03-02T11:08:55;55.85;;;23.70;;
84796;SDS011;75028;51.374;21.078;2024-03-02T11:11:27;60.67;;;25.13;;
84796;SDS011;75028;51.374;21.078;2024-03-02T11:13:56;53.50;;;23.48;;
84796;SDS011;75028;51.374;21.078;2024-03-02T11:16:31;57.28;;;24.88;;
84796;SDS011;75028;51.374;21.078;2024-03-02T11:19:13;51.97;;;22.65;;
84796;SDS011;75028;51.374;21.078;2024-03-02T11:21:40;59.28;;;27.10;;
84796;SDS011;75028;51.374;21.078;2024-03-02T11:26:50;59.55;;;25.60;;
84796;SDS011;75028;51.374;21.078;2024-03-02T11:32:12;60.80;;;25.90;;
84796;SDS011;75028;51.374;21.078;2024-03-02T11:34:40;60.17;;;25.15;;
84796;SDS011;75028;51.374;21.078;2024-03-02T11:37:12;62.10;;;26.15;;
84796;SDS011;75028;51.374;21.078;2024-03-02T11:39:39;56.15;;;25.08;;
84796;SDS011;75028;51.374;21.078;2024-03-02T11:42:06;61.85;;;27.13;;
84796;SDS011;75028;51.374;21.078;2024-03-02T11:44:35;63.25;;;25.98;;
84796;SDS011;75028;51.374;21.078;2024-03-02T11:47:06;63.60;;;27.52;;
84796;SDS011;75028;51.374;21.078;2024-03-02T11:52:17;63.13;;;26.35;;
84796;SDS011;75028;51.374;21.078;2024-03-02T11:54:44;55.75;;;26.02;;
84796;SDS011;75028;51.374;21.078;2024-03-02T11:57:18;60.83;;;25.52;;
84796;SDS011;75028;51.374;21.078;2024-03-02T11:59:46;65.28;;;27.10;;
84796;SDS011;75028;51.374;21.078;2024-03-02T12:02:16;66.20;;;28.42;;
84796;SDS011;75028;51.374;21.078;2024-03-02T12:04:43;67.95;;;28.73;;
84796;SDS011;75028;51.374;21.078;2024-03-02T12:07:11;68.97;;;29.27;;
84796;SDS011;75028;51.374;21.078;2024-03-02T12:09:38;69.32;;;29.15;;
84796;SDS011;75028;51.374;21.078;2024-03-02T12:14:31;71.00;;;29.58;;
84796;SDS011;75028;51.374;21.078;2024-03-02T12:16:58;77.32;;;30.27;;
84796;SDS011;75028;51.374;21.078;2024-03-02T12:19:25;70.68;;;29.77;;
84796;SDS011;75028;51.374;21.078;2024-03-02T12:21:52;63.78;;;28.70;;
84796;SDS011;75028;51.374;21.078;2024-03-02T12:24:20;70.00;;;29.42;;
84796;SDS011;75028;51.374;21.078;2024-03-02T12:26:49;66.90;;;27.85;;
84796;SDS011;75028;51.374;21.078;2024-03-02T12:29:15;65.30;;;28.60;;
84796;SDS011;75028;51.374;21.078;2024-03-02T12:31:42;67.03;;;27.45;;
84796;SDS011;75028;51.374;21.078;2024-03-02T12:34:12;67.82;;;29.30;;
84796;SDS011;75028;51.374;21.078;2024-03-02T12:36:39;64.90;;;28.77;;
84796;SDS011;75028;51.374;21.078;2024-03-02T12:39:07;63.10;;;27.48;;
84796;SDS011;75028;51.374;21.078;2024-03-02T12:41:37;68.07;;;29.92;;
84796;SDS011;75028;51.374;21.078;2024-03-02T12:44:03;65.07;;;26.73;;
84796;SDS011;75028;51.374;21.078;2024-03-02T12:46:33;62.40;;;27.92;;
84796;SDS011;75028;51.374;21.078;2024-03-02T12:49:11;66.97;;;28.42;;
84796;SDS011;75028;51.374;21.078;2024-03-02T12:51:39;56.00;;;25.02;;
84796;SDS011;75028;51.374;21.078;2024-03-02T12:54:07;63.60;;;27.58;;
84796;SDS011;75028;51.374;21.078;2024-03-02T12:56:35;69.47;;;27.73;;
84796;SDS011;75028;51.374;21.078;2024-03-02T12:59:01;67.40;;;27.70;;
84796;SDS011;75028;51.374;21.078;2024-03-02T13:01:28;59.47;;;26.40;;
84796;SDS011;75028;51.374;21.078;2024-03-02T13:03:54;55.45;;;26.00;;
84796;SDS011;75028;51.374;21.078;2024-03-02T13:06:21;63.10;;;27.80;;
84796;SDS011;75028;51.374;21.078;2024-03-02T13:11:13;54.35;;;25.25;;
84796;SDS011;75028;51.374;21.078;2024-03-02T13:13:39;59.33;;;26.05;;
84796;SDS011;75028;51.374;21.078;2024-03-02T13:16:12;56.13;;;25.50;;
84796;SDS011;75028;51.374;21.078;2024-03-02T13:18:38;56.97;;;26.98;;
84796;SDS011;75028;51.374;21.078;2024-03-02T13:21:06;57.47;;;26.02;;
84796;SDS011;75028;51.374;21.078;2024-03-02T13:23:32;58.78;;;26.58;;
84796;SDS011;75028;51.374;21.078;2024-03-02T13:28:24;58.95;;;24.75;;
84796;SDS011;75028;51.374;21.078;2024-03-02T13:30:51;58.28;;;26.08;;
84796;SDS011;75028;51.374;21.078;2024-03-02T13:33:17;49.67;;;23.65;;
84796;SDS011;75028;51.374;21.078;2024-03-02T13:35:51;53.65;;;24.20;;
84796;SDS011;75028;51.374;21.078;2024-03-02T13:38:18;50.05;;;24.05;;
84796;SDS011;75028;51.374;21.078;2024-03-02T13:40:45;56.90;;;24.73;;
84796;SDS011;75028;51.374;21.078;2024-03-02T13:43:16;54.40;;;25.58;;
84796;SDS011;75028;51.374;21.078;2024-03-02T13:45:44;53.40;;;25.30;;
84796;SDS011;75028;51.374;21.078;2024-03-02T13:50:36;65.20;;;28.63;;
84796;SDS011;75028;51.374;21.078;2024-03-02T13:53:02;98.97;;;41.95;;
84796;SDS011;75028;51.374;21.078;2024-03-02T13:55:29;115.22;;;44.40;;
84796;SDS011;75028;51.374;21.078;2024-03-02T13:57:54;58.40;;;26.63;;
84796;SDS011;75028;51.374;21.078;2024-03-02T14:00:21;54.47;;;24.98;;
84796;SDS011;75028;51.374;21.078;2024-03-02T14:02:47;52.88;;;24.55;;
84796;SDS011;75028;51.374;21.078;2024-03-02T14:05:15;52.47;;;24.55;;
84796;SDS011;75028;51.374;21.078;2024-03-02T14:07:41;68.10;;;28.98;;
84796;SDS011;75028;51.374;21.078;2024-03-02T14:10:08;51.75;;;26.00;;
84796;SDS011;75028;51.374;21.078;2024-03-02T14:12:34;54.92;;;25.63;;
84796;SDS011;75028;51.374;21.078;2024-03-02T14:15:02;61.60;;;27.27;;
84796;SDS011;75028;51.374;21.078;2024-03-02T14:17:28;56.00;;;26.55;;
84796;SDS011;75028;51.374;21.078;2024-03-02T14:19:55;82.97;;;34.92;;
84796;SDS011;75028;51.374;21.078;2024-03-02T14:22:22;73.45;;;29.23;;
84796;SDS011;75028;51.374;21.078;2024-03-02T14:24:48;138.05;;;54.53;;
84796;SDS011;75028;51.374;21.078;2024-03-02T14:27:14;61.35;;;29.20;;
84796;SDS011;75028;51.374;21.078;2024-03-02T14:29:42;58.08;;;25.95;;
84796;SDS011;75028;51.374;21.078;2024-03-02T14:32:08;122.15;;;47.60;;
84796;SDS011;75028;51.374;21.078;2024-03-02T14:37:01;51.33;;;24.30;;
84796;SDS011;75028;51.374;21.078;2024-03-02T14:39:28;79.97;;;35.20;;
84796;SDS011;75028;51.374;21.078;2024-03-02T14:41:55;59.53;;;27.52;;
84796;SDS011;75028;51.374;21.078;2024-03-02T14:46:47;67.60;;;31.15;;
84796;SDS011;75028;51.374;21.078;2024-03-02T14:49:14;72.63;;;29.80;;
84796;SDS011;75028;51.374;21.078;2024-03-02T14:51:40;129.68;;;53.85;;
84796;SDS011;75028;51.374;21.078;2024-03-02T14:54:06;152.20;;;68.53;;
84796;SDS011;75028;51.374;21.078;2024-03-02T14:56:32;59.92;;;27.58;;
84796;SDS011;75028;51.374;21.078;2024-03-02T15:01:24;72.05;;;33.03;;
84796;SDS011;75028;51.374;21.078;2024-03-02T15:06:16;87.40;;;33.05;;
84796;SDS011;75028;51.374;21.078;2024-03-02T15:08:43;65.65;;;26.92;;
84796;SDS011;75028;51.374;21.078;2024-03-02T15:11:12;61.47;;;26.13;;
84796;SDS011;75028;51.374;21.078;2024-03-02T15:13:39;67.22;;;29.60;;
84796;SDS011;75028;51.374;21.078;2024-03-02T15:18:31;52.67;;;24.75;;
84796;SDS011;75028;51.374;21.078;2024-03-02T15:20:57;58.08;;;26.65;;
84796;SDS011;75028;51.374;21.078;2024-03-02T15:25:49;64.85;;;26.98;;
84796;SDS011;75028;51.374;21.078;2024-03-02T15:28:16;57.15;;;26.58;;
84796;SDS011;75028;51.374;21.078;2024-03-02T15:30:42;56.97;;;26.05;;
84796;SDS011;75028;51.374;21.078;2024-03-02T15:33:08;58.85;;;27.02;;
84796;SDS011;75028;51.374;21.078;2024-03-02T15:35:34;60.05;;;26.58;;
84796;SDS011;75028;51.374;21.078;2024-03-02T15:38:01;129.80;;;55.75;;
84796;SDS011;75028;51.374;21.078;2024-03-02T15:40:27;94.03;;;40.03;;